TimeCST,TemperatureF,Dew PointF,Humidity,Sea Level PressureIn,VisibilityMPH,Wind Direction,Wind SpeedMPH,Gust SpeedMPH,PrecipitationIn,Events,Conditions,WindDirDegrees,DateUTC
12:15 AM,54.5,52.0,91,30.22,10.0,North,3.5,-,N/A,,Clear,350,2013-11-12 06:15:00
12:35 AM,54.5,51.8,91,30.22,10.0,North,5.8,-,N/A,,Clear,360,2013-11-12 06:35:00
12:55 AM,53.8,51.6,92,30.23,10.0,North,4.6,-,N/A,,Clear,360,2013-11-12 06:55:00
1:15 AM,54.0,51.8,92,30.23,10.0,North,5.8,-,N/A,,Clear,10,2013-11-12 07:15:00
1:35 AM,54.7,52.2,91,30.24,10.0,North,4.6,-,N/A,,Clear,10,2013-11-12 07:35:00
1:55 AM,54.9,52.2,91,30.24,10.0,North,4.6,-,N/A,,Clear,360,2013-11-12 07:55:00
2:15 AM,54.1,51.4,91,30.24,10.0,North,5.8,-,N/A,,Clear,360,2013-11-12 08:15:00
2:35 AM,53.4,51.3,92,30.24,10.0,North,4.6,-,N/A,,Clear,350,2013-11-12 08:35:00
2:55 AM,53.4,51.1,92,30.24,10.0,North,5.8,-,N/A,,Clear,350,2013-11-12 08:55:00
3:15 AM,53.4,51.3,92,30.24,10.0,North,6.9,-,N/A,,Clear,360,2013-11-12 09:15:00
3:35 AM,53.8,51.4,92,30.25,10.0,North,4.6,-,N/A,,Clear,360,2013-11-12 09:35:00
3:55 AM,53.4,51.1,92,30.25,10.0,North,6.9,-,N/A,,Clear,360,2013-11-12 09:55:00
4:15 AM,52.7,50.9,94,30.26,10.0,NNW,3.5,-,N/A,,Clear,340,2013-11-12 10:15:00
4:35 AM,52.7,50.9,94,30.27,10.0,North,4.6,-,N/A,,Clear,350,2013-11-12 10:35:00
4:55 AM,52.2,50.5,94,30.27,10.0,North,4.6,-,N/A,,Clear,350,2013-11-12 10:55:00
5:15 AM,52.0,50.4,94,30.29,10.0,North,4.6,-,N/A,,Clear,350,2013-11-12 11:15:00
5:35 AM,52.2,50.4,94,30.29,10.0,North,4.6,-,N/A,,Clear,350,2013-11-12 11:35:00
5:55 AM,51.8,50.0,94,30.30,10.0,North,5.8,-,N/A,,Clear,350,2013-11-12 11:55:00
6:15 AM,51.1,49.5,94,30.31,10.0,North,4.6,-,N/A,,Clear,350,2013-11-12 12:15:00
6:35 AM,50.9,49.5,95,30.31,10.0,North,4.6,-,N/A,,Clear,350,2013-11-12 12:35:00
6:55 AM,51.1,49.6,95,30.31,10.0,NNW,5.8,-,N/A,,Clear,340,2013-11-12 12:55:00
7:15 AM,51.8,50.4,95,30.32,10.0,NNW,6.9,-,N/A,,Clear,340,2013-11-12 13:15:00
7:35 AM,52.9,51.1,94,30.34,10.0,North,5.8,-,N/A,,Clear,350,2013-11-12 13:35:00
7:55 AM,54.9,52.7,92,30.34,10.0,North,6.9,-,N/A,,Clear,360,2013-11-12 13:55:00
8:15 AM,57.6,53.1,85,30.35,10.0,North,9.2,-,N/A,,Clear,10,2013-11-12 14:15:00
8:35 AM,59.4,53.1,80,30.36,10.0,North,10.4,16.1,N/A,,Clear,10,2013-11-12 14:35:00
8:55 AM,61.0,54.0,78,30.36,10.0,North,9.2,17.3,N/A,,Clear,10,2013-11-12 14:55:00
9:15 AM,62.4,54.1,74,30.37,10.0,North,9.2,16.1,N/A,,Clear,10,2013-11-12 15:15:00
9:35 AM,64.4,54.1,69,30.38,10.0,North,11.5,17.3,N/A,,Clear,10,2013-11-12 15:35:00
9:55 AM,67.1,54.1,63,30.38,10.0,North,16.1,19.6,N/A,,Clear,10,2013-11-12 15:55:00
10:15 AM,67.8,54.0,61,30.38,10.0,North,18.4,23.0,N/A,,Clear,360,2013-11-12 16:15:00
10:35 AM,68.9,53.1,57,30.38,10.0,North,18.4,24.2,N/A,,Clear,360,2013-11-12 16:35:00
10:55 AM,69.4,52.5,55,30.38,10.0,NNE,16.1,26.5,N/A,,Clear,20,2013-11-12 16:55:00
11:15 AM,70.3,52.9,54,30.37,2.5,North,20.7,31.1,N/A,,Haze,10,2013-11-12 17:15:00
11:35 AM,71.1,53.1,53,30.37,2.5,NNE,19.6,25.3,N/A,,Haze,30,2013-11-12 17:35:00
11:55 AM,71.6,52.9,52,30.37,7.0,North,16.1,29.9,N/A,,Clear,10,2013-11-12 17:55:00
12:15 PM,70.9,54.7,56,30.37,7.0,North,21.9,29.9,N/A,,Scattered Clouds,350,2013-11-12 18:15:00
12:35 PM,69.4,56.7,64,30.37,10.0,North,19.6,27.6,N/A,,Mostly Cloudy,350,2013-11-12 18:35:00
12:55 PM,67.1,55.8,67,30.37,10.0,NNW,24.2,31.1,N/A,,Mostly Cloudy,340,2013-11-12 18:55:00
1:15 PM,64.8,55.4,72,30.37,10.0,NNW,26.5,32.2,N/A,,Scattered Clouds,340,2013-11-12 19:15:00
1:35 PM,62.6,54.3,74,30.38,10.0,North,20.7,33.4,N/A,,Scattered Clouds,350,2013-11-12 19:35:00
1:55 PM,61.9,53.4,74,30.38,10.0,NNW,24.2,29.9,N/A,,Scattered Clouds,340,2013-11-12 19:55:00
2:15 PM,61.3,52.5,73,30.39,10.0,NNW,24.2,34.5,N/A,,Mostly Cloudy,340,2013-11-12 20:15:00
2:35 PM,60.8,52.5,74,30.40,10.0,North,18.4,32.2,N/A,,Mostly Cloudy,360,2013-11-12 20:35:00
2:55 PM,59.5,52.0,76,30.40,10.0,North,20.7,27.6,N/A,,Overcast,350,2013-11-12 20:55:00
3:15 PM,59.0,51.8,77,30.41,10.0,North,19.6,25.3,N/A,,Overcast,360,2013-11-12 21:15:00
3:35 PM,58.8,51.4,76,30.41,10.0,North,16.1,27.6,N/A,,Overcast,360,2013-11-12 21:35:00
3:55 PM,59.0,51.4,76,30.41,10.0,North,18.4,23.0,N/A,,Overcast,350,2013-11-12 21:55:00
4:15 PM,59.0,51.3,75,30.42,10.0,North,16.1,24.2,N/A,,Overcast,360,2013-11-12 22:15:00
4:35 PM,58.5,51.1,76,30.42,10.0,North,17.3,21.9,N/A,,Overcast,350,2013-11-12 22:35:00
4:55 PM,58.3,50.9,76,30.42,10.0,North,18.4,26.5,N/A,,Overcast,360,2013-11-12 22:55:00
5:15 PM,58.1,50.4,75,30.43,10.0,North,17.3,27.6,N/A,,Overcast,350,2013-11-12 23:15:00
5:35 PM,57.2,49.6,76,30.44,10.0,North,15.0,26.5,N/A,,Overcast,360,2013-11-12 23:35:00
5:55 PM,56.5,48.6,75,30.45,10.0,North,19.6,27.6,N/A,,Overcast,360,2013-11-12 23:55:00
6:15 PM,55.6,48.2,76,30.46,10.0,North,16.1,25.3,N/A,,Overcast,360,2013-11-13 00:15:00
6:35 PM,55.2,48.2,77,30.47,10.0,North,20.7,28.8,N/A,,Overcast,360,2013-11-13 00:35:00
6:55 PM,54.7,47.7,77,30.48,10.0,North,19.6,25.3,N/A,,Overcast,360,2013-11-13 00:55:00
7:15 PM,54.7,47.5,77,30.49,10.0,North,19.6,26.5,N/A,,Overcast,360,2013-11-13 01:15:00
7:35 PM,54.5,47.5,77,30.50,10.0,North,17.3,24.2,N/A,,Overcast,10,2013-11-13 01:35:00
7:55 PM,54.5,47.5,77,30.51,10.0,North,16.1,21.9,N/A,,Overcast,360,2013-11-13 01:55:00
8:15 PM,54.3,47.3,77,30.52,10.0,North,16.1,27.6,N/A,,Overcast,10,2013-11-13 02:15:00
8:35 PM,54.1,46.8,76,30.52,10.0,North,12.7,25.3,N/A,,Overcast,10,2013-11-13 02:35:00
8:55 PM,53.8,45.9,75,30.53,10.0,North,15.0,27.6,N/A,,Overcast,10,2013-11-13 02:55:00
9:15 PM,53.4,45.7,75,30.54,10.0,North,13.8,24.2,N/A,,Overcast,10,2013-11-13 03:15:00
9:35 PM,52.0,45.5,79,30.55,10.0,North,11.5,18.4,N/A,,Scattered Clouds,10,2013-11-13 03:35:00
9:55 PM,51.3,45.1,80,30.55,10.0,North,11.5,-,N/A,,Clear,360,2013-11-13 03:55:00
10:15 PM,50.9,44.6,79,30.56,10.0,North,11.5,18.4,N/A,,Scattered Clouds,360,2013-11-13 04:15:00
10:35 PM,50.2,44.1,79,30.56,10.0,North,15.0,-,N/A,,Scattered Clouds,360,2013-11-13 04:35:00
10:55 PM,49.3,43.7,81,30.56,10.0,North,10.4,17.3,N/A,,Clear,360,2013-11-13 04:55:00
11:15 PM,48.7,43.7,83,30.56,10.0,North,11.5,16.1,N/A,,Clear,10,2013-11-13 05:15:00
11:35 PM,48.2,43.2,83,30.56,10.0,North,12.7,17.3,N/A,,Clear,360,2013-11-13 05:35:00
11:55 PM,48.2,43.2,83,30.56,10.0,North,11.5,-,N/A,,Clear,360,2013-11-13 05:55:00